createdAt,value
2019-03-13T00:00:42.865Z,90.60
2019-03-13T00:03:14.996Z,91.50
2019-03-13T00:05:46.315Z,92.60
2019-03-13T00:08:19.398Z,92.90
2019-03-13T00:10:53.069Z,92.80
2019-03-13T00:13:26.517Z,93.70
2019-03-13T00:15:59.400Z,94.40
2019-03-13T00:18:30.260Z,95.90
2019-03-13T00:20:59.473Z,96.40
2019-03-13T00:23:28.576Z,96.80
2019-03-13T00:25:57.870Z,97.30
2019-03-13T00:28:27.041Z,97.20
2019-03-13T00:30:56.341Z,97.30
2019-03-13T00:33:25.553Z,98.60
2019-03-13T00:35:54.821Z,99.70
2019-03-13T00:38:23.978Z,99.90
2019-03-13T00:40:53.151Z,99.40
2019-03-13T00:43:22.263Z,99.80
2019-03-13T00:46:10.550Z,99.90
2019-03-13T00:48:39.665Z,99.90
2019-03-13T00:51:08.892Z,99.90
2019-03-13T00:53:37.992Z,99.80
2019-03-13T00:56:07.148Z,98.80
2019-03-13T00:58:36.280Z,99.20
2019-03-13T01:01:21.532Z,99.40
2019-03-13T01:03:55.761Z,98.60
2019-03-13T01:06:31.010Z,98.30
2019-03-13T01:09:00.251Z,98.50
2019-03-13T01:11:29.599Z,98.80
2019-03-13T01:13:58.873Z,98.90
2019-03-13T01:16:28.102Z,98.90
2019-03-13T01:18:57.253Z,99.50
2019-03-13T01:21:27.545Z,99.50
2019-03-13T01:23:56.764Z,99.60
2019-03-13T01:26:26.037Z,99.40
2019-03-13T01:28:55.265Z,99.40
2019-03-13T01:31:58.626Z,99.50
2019-03-13T01:34:34.443Z,99.90
2019-03-13T01:37:03.585Z,99.90
2019-03-13T01:39:32.701Z,99.90
2019-03-13T01:42:01.872Z,99.90
2019-03-13T01:44:31.003Z,99.90
2019-03-13T01:47:00.214Z,99.90
2019-03-13T01:49:29.508Z,99.90
2019-03-13T01:51:58.725Z,99.90
2019-03-13T01:54:27.875Z,99.90
2019-03-13T01:56:57.027Z,99.90
2019-03-13T01:59:26.297Z,99.90
2019-03-13T02:01:55.441Z,99.90
2019-03-13T02:04:24.661Z,99.90
2019-03-13T02:06:53.880Z,99.90
2019-03-13T02:09:23.033Z,99.90
2019-03-13T02:11:52.190Z,99.90
2019-03-13T02:14:21.464Z,99.90
2019-03-13T02:16:50.663Z,99.90
2019-03-13T02:19:19.903Z,99.90
2019-03-13T02:21:49.045Z,99.90
2019-03-13T02:24:18.392Z,99.90
2019-03-13T02:26:47.585Z,99.90
2019-03-13T02:29:16.792Z,99.90
2019-03-13T02:31:45.987Z,99.90
2019-03-13T02:34:15.240Z,99.90
2019-03-13T02:36:44.418Z,99.90
2019-03-13T02:39:13.649Z,99.70
2019-03-13T02:41:42.875Z,99.10
2019-03-13T02:44:12.094Z,98.80
2019-03-13T02:46:41.244Z,98.90
2019-03-13T02:49:10.383Z,98.70
2019-03-13T02:51:39.524Z,98.70
2019-03-13T02:54:08.675Z,98.60
2019-03-13T02:56:37.898Z,99.00
2019-03-13T02:59:07.125Z,98.90
2019-03-13T03:01:59.655Z,99.20
2019-03-13T03:04:28.876Z,99.10
2019-03-13T03:06:58.019Z,99.40
2019-03-13T03:09:27.198Z,99.40
2019-03-13T03:11:56.420Z,99.90
2019-03-13T03:14:25.584Z,99.90
2019-03-13T03:16:54.725Z,99.90
2019-03-13T03:19:23.940Z,99.90
2019-03-13T03:21:53.106Z,99.90
2019-03-13T03:24:22.216Z,99.90
2019-03-13T03:26:51.437Z,99.90
2019-03-13T03:29:20.764Z,99.90
2019-03-13T03:31:50.050Z,99.90
2019-03-13T03:34:19.201Z,99.90
2019-03-13T03:36:48.376Z,99.90
2019-03-13T03:39:17.597Z,99.90
2019-03-13T03:41:46.833Z,99.90
2019-03-13T03:44:15.990Z,99.90
2019-03-13T03:46:45.307Z,99.90
2019-03-13T03:49:14.525Z,99.90
2019-03-13T03:51:43.743Z,99.90
2019-03-13T03:54:13.928Z,99.90
2019-03-13T03:56:43.086Z,99.90
2019-03-13T03:59:12.629Z,99.90
2019-03-13T04:01:41.879Z,99.90
2019-03-13T04:04:11.126Z,99.90
2019-03-13T04:06:40.525Z,99.90
2019-03-13T04:09:09.693Z,99.90
2019-03-13T04:11:38.888Z,99.90
2019-03-13T04:14:08.073Z,99.90
2019-03-13T04:16:37.274Z,99.90
2019-03-13T04:19:06.462Z,99.90
2019-03-13T04:21:35.615Z,99.90
2019-03-13T04:24:04.843Z,99.90
2019-03-13T04:26:33.962Z,99.90
2019-03-13T04:29:04.151Z,99.90
2019-03-13T04:31:33.269Z,99.90
2019-03-13T04:34:02.507Z,99.90
2019-03-13T04:36:31.597Z,99.90
2019-03-13T04:39:00.835Z,99.90
2019-03-13T04:41:29.985Z,99.90
2019-03-13T04:43:59.228Z,99.90
2019-03-13T04:46:28.420Z,99.90
2019-03-13T04:48:57.637Z,99.90
2019-03-13T04:51:26.832Z,99.90
2019-03-13T04:53:55.966Z,99.90
2019-03-13T04:56:25.082Z,99.90
2019-03-13T04:58:54.293Z,99.90
2019-03-13T05:01:26.107Z,99.90
2019-03-13T05:03:54.314Z,99.90
2019-03-13T05:06:23.926Z,99.90
2019-03-13T05:09:07.297Z,99.90
2019-03-13T05:11:36.408Z,99.90
2019-03-13T05:14:05.662Z,99.90
2019-03-13T05:16:36.268Z,99.90
2019-03-13T05:19:05.564Z,99.90
2019-03-13T05:21:34.729Z,99.90
2019-03-13T05:24:03.908Z,99.90
2019-03-13T05:26:33.035Z,99.90
2019-03-13T05:29:02.284Z,99.90
2019-03-13T05:31:31.411Z,99.90
2019-03-13T05:34:00.671Z,99.90
2019-03-13T05:36:29.820Z,99.90
2019-03-13T05:38:58.958Z,99.90
2019-03-13T05:41:28.214Z,99.90
2019-03-13T05:43:57.413Z,99.90
2019-03-13T05:46:26.663Z,99.90
2019-03-13T05:48:55.859Z,99.90
2019-03-13T05:51:25.042Z,99.90
2019-03-13T05:53:54.190Z,99.90
2019-03-13T05:56:23.356Z,99.90
2019-03-13T05:58:52.492Z,99.90
2019-03-13T06:01:21.645Z,99.90
2019-03-13T06:03:50.758Z,99.90
2019-03-13T06:06:19.976Z,99.90
2019-03-13T06:08:49.215Z,99.90
2019-03-13T06:11:18.620Z,99.90
2019-03-13T06:13:47.800Z,99.90
2019-03-13T06:16:16.943Z,99.90
2019-03-13T06:18:46.177Z,99.90
2019-03-13T06:21:15.320Z,99.90
2019-03-13T06:23:47.738Z,99.90
2019-03-13T06:26:15.389Z,99.90
2019-03-13T06:28:44.497Z,99.90
2019-03-13T06:31:13.625Z,99.90
2019-03-13T06:33:42.830Z,99.90
2019-03-13T06:36:12.080Z,99.90
2019-03-13T06:38:41.238Z,99.90
2019-03-13T06:41:11.817Z,99.90
2019-03-13T06:43:41.062Z,99.90
2019-03-13T06:46:10.309Z,99.90
2019-03-13T06:48:39.540Z,99.90
2019-03-13T06:51:08.779Z,99.90
2019-03-13T06:53:37.961Z,99.90
2019-03-13T06:56:07.229Z,99.90
2019-03-13T06:58:54.281Z,99.90
2019-03-13T07:01:30.856Z,99.90
2019-03-13T07:04:22.169Z,99.90
2019-03-13T07:07:07.479Z,99.90
2019-03-13T07:10:00.827Z,99.90
2019-03-13T07:12:49.033Z,99.90
2019-03-13T07:15:36.028Z,99.90
2019-03-13T07:18:20.734Z,99.90
2019-03-13T07:21:23.472Z,99.90
2019-03-13T07:23:58.341Z,99.90
2019-03-13T07:26:35.465Z,99.90
2019-03-13T07:29:14.252Z,99.90
2019-03-13T07:32:00.509Z,99.90
2019-03-13T07:34:43.911Z,99.90
2019-03-13T07:37:31.055Z,99.90
2019-03-13T07:40:37.696Z,99.90
2019-03-13T07:43:34.446Z,99.90
2019-03-13T07:46:19.980Z,99.90
2019-03-13T07:49:14.581Z,99.90
2019-03-13T07:51:56.768Z,99.90
2019-03-13T07:54:43.660Z,99.90
2019-03-13T07:57:34.858Z,99.90
2019-03-13T08:00:26.171Z,99.90
2019-03-13T08:03:04.085Z,99.90
2019-03-13T08:05:52.273Z,99.70
2019-03-13T08:08:55.646Z,98.80
2019-03-13T08:12:01.884Z,98.50
2019-03-13T08:14:52.913Z,97.70
2019-03-13T08:17:43.875Z,97.10
2019-03-13T08:20:35.126Z,96.40
2019-03-13T08:23:33.743Z,96.70
2019-03-13T08:26:25.086Z,96.30
2019-03-13T08:29:19.292Z,96.40
2019-03-13T08:32:10.491Z,95.90
2019-03-13T08:34:48.631Z,96.10
2019-03-13T08:37:35.821Z,96.20
2019-03-13T08:40:27.551Z,95.70
2019-03-13T08:43:24.923Z,96.00
2019-03-13T08:46:22.260Z,95.50
2019-03-13T08:49:00.575Z,95.50
2019-03-13T08:52:03.899Z,95.40
2019-03-13T08:54:50.878Z,95.40
2019-03-13T08:57:45.482Z,95.30
2019-03-13T09:00:33.792Z,95.00
2019-03-13T09:03:20.990Z,94.80
2019-03-13T09:06:08.108Z,95.40
2019-03-13T09:08:55.075Z,95.40
2019-03-13T09:11:43.236Z,95.20
2019-03-13T09:14:34.697Z,95.00
2019-03-13T09:17:26.205Z,94.40
2019-03-13T09:20:18.383Z,95.00
2019-03-13T09:23:16.077Z,93.50
2019-03-13T09:26:02.900Z,93.80
2019-03-13T09:29:06.487Z,93.40
2019-03-13T09:32:06.651Z,92.80
2019-03-13T09:34:44.021Z,92.70
2019-03-13T09:37:38.901Z,93.20
2019-03-13T09:40:24.090Z,93.10
2019-03-13T09:43:02.398Z,93.20
2019-03-13T09:45:50.582Z,93.40
2019-03-13T09:48:34.001Z,92.90
2019-03-13T09:51:31.318Z,93.20
2019-03-13T09:54:10.420Z,93.60
2019-03-13T09:56:47.828Z,93.80
2019-03-13T09:59:43.719Z,93.50
2019-03-13T10:02:25.198Z,94.00
2019-03-13T10:05:15.439Z,93.50
2019-03-13T10:08:15.699Z,92.90
2019-03-13T10:11:02.353Z,93.40
2019-03-13T10:13:50.544Z,91.90
2019-03-13T10:16:41.835Z,91.70
2019-03-13T10:19:24.244Z,92.30
2019-03-13T10:22:15.587Z,91.60
2019-03-13T10:25:03.780Z,91.40
2019-03-13T10:27:46.106Z,91.20
2019-03-13T10:30:28.098Z,91.10
2019-03-13T10:33:15.714Z,91.80
2019-03-13T10:36:13.012Z,92.40
2019-03-13T10:39:05.160Z,92.00
2019-03-13T10:41:58.366Z,91.90
2019-03-13T10:45:03.355Z,91.80
2019-03-13T10:47:50.353Z,91.60
2019-03-13T10:50:38.597Z,91.20
2019-03-13T10:53:32.770Z,91.10
2019-03-13T10:56:21.094Z,91.20
2019-03-13T10:59:15.495Z,90.30
2019-03-13T11:02:03.713Z,90.70
2019-03-13T11:04:49.395Z,91.30
2019-03-13T11:07:37.613Z,91.10
2019-03-13T11:10:27.817Z,90.50
2019-03-13T11:13:12.992Z,91.10
2019-03-13T11:16:00.028Z,89.00
2019-03-13T11:18:50.036Z,90.00
2019-03-13T11:21:36.481Z,86.90
2019-03-13T11:24:33.779Z,85.80
2019-03-13T11:27:28.464Z,87.50
2019-03-13T11:30:06.700Z,84.60
2019-03-13T11:33:07.169Z,84.40
2019-03-13T11:35:43.254Z,84.80
2019-03-13T11:38:27.367Z,84.40
2019-03-13T11:41:06.833Z,85.40
2019-03-13T11:43:45.687Z,86.60
2019-03-13T11:46:22.737Z,85.10
2019-03-13T11:49:19.948Z,84.80
2019-03-13T11:52:11.006Z,84.50
2019-03-13T11:55:11.598Z,86.80
2019-03-13T11:57:59.747Z,87.00
2019-03-13T12:00:41.012Z,87.20
2019-03-13T12:03:22.191Z,87.20
2019-03-13T12:06:26.953Z,86.90
2019-03-13T12:09:15.154Z,88.20
2019-03-13T12:12:12.675Z,90.40
2019-03-13T12:14:49.194Z,90.60
2019-03-13T12:17:24.551Z,90.80
2019-03-13T12:20:21.881Z,90.30
2019-03-13T12:23:08.756Z,90.70
2019-03-13T12:25:57.027Z,90.80
2019-03-13T12:28:47.938Z,90.60
2019-03-13T12:31:33.680Z,90.30
2019-03-13T12:34:13.626Z,88.50
2019-03-13T12:37:07.891Z,89.40
2019-03-13T12:40:17.459Z,86.00
2019-03-13T12:43:08.372Z,86.10
2019-03-13T12:45:45.064Z,85.80
2019-03-13T12:48:20.385Z,87.80
2019-03-13T12:51:08.612Z,90.40
2019-03-13T12:53:54.237Z,91.10
2019-03-13T12:56:33.366Z,91.10
2019-03-13T12:59:13.023Z,91.60
2019-03-13T13:02:16.388Z,90.70
2019-03-13T13:05:07.469Z,90.50
2019-03-13T13:07:46.200Z,90.90
2019-03-13T13:10:49.470Z,90.90
2019-03-13T13:13:54.056Z,91.00
2019-03-13T13:16:34.544Z,91.30
2019-03-13T13:19:03.810Z,91.10
2019-03-13T13:21:32.985Z,92.10
2019-03-13T13:24:02.258Z,95.20
2019-03-13T13:26:34.203Z,96.60
2019-03-13T13:29:03.482Z,98.30
2019-03-13T13:31:32.672Z,99.90
2019-03-13T13:34:01.914Z,99.90
2019-03-13T13:36:32.695Z,99.90
2019-03-13T13:39:01.936Z,99.90
2019-03-13T13:41:31.095Z,99.90
2019-03-13T13:44:00.440Z,99.90
2019-03-13T13:46:31.564Z,99.90
2019-03-13T13:49:00.921Z,99.90
2019-03-13T13:51:32.590Z,99.90
2019-03-13T13:54:01.050Z,99.90
2019-03-13T13:56:30.313Z,99.90
2019-03-13T13:58:59.609Z,99.90
2019-03-13T14:01:28.967Z,99.90
2019-03-13T14:03:58.224Z,99.90
2019-03-13T14:06:27.432Z,99.90
2019-03-13T14:08:56.669Z,99.90
2019-03-13T14:11:25.900Z,99.90
2019-03-13T14:13:55.066Z,99.90
2019-03-13T14:16:24.357Z,99.90
2019-03-13T14:18:53.655Z,99.90
2019-03-13T14:21:23.060Z,99.90
2019-03-13T14:23:52.290Z,99.90
2019-03-13T14:26:21.551Z,99.90
2019-03-13T14:28:50.731Z,99.90
2019-03-13T14:31:20.095Z,99.90
2019-03-13T14:33:49.430Z,99.90
2019-03-13T14:36:19.753Z,99.90
2019-03-13T14:38:49.165Z,99.90
2019-03-13T14:41:19.795Z,99.60
2019-03-13T14:43:49.018Z,97.80
2019-03-13T14:46:18.216Z,96.30
2019-03-13T14:48:47.390Z,96.30
2019-03-13T14:51:18.682Z,97.20
2019-03-13T14:53:47.920Z,97.90
2019-03-13T14:56:17.208Z,97.70
2019-03-13T14:58:46.463Z,96.20
2019-03-13T15:01:15.827Z,96.20
2019-03-13T15:03:45.070Z,94.40
2019-03-13T15:06:14.387Z,94.50
2019-03-13T15:08:43.532Z,94.60
2019-03-13T15:11:12.782Z,94.00
2019-03-13T15:13:43.236Z,94.10
2019-03-13T15:16:12.522Z,94.50
2019-03-13T15:18:41.874Z,94.90
2019-03-13T15:21:11.128Z,94.40
2019-03-13T15:23:40.350Z,95.70
2019-03-13T15:26:09.637Z,94.70
2019-03-13T15:28:38.930Z,94.70
2019-03-13T15:31:09.873Z,94.10
2019-03-13T15:33:39.109Z,94.70
2019-03-13T15:36:08.356Z,94.60
2019-03-13T15:38:37.545Z,93.40
2019-03-13T15:41:06.757Z,92.70
2019-03-13T15:43:36.034Z,92.70
2019-03-13T15:46:06.482Z,93.00
2019-03-13T15:48:35.615Z,93.30
2019-03-13T15:51:05.039Z,93.30
2019-03-13T15:53:34.342Z,93.40
2019-03-13T15:56:03.655Z,93.50
2019-03-13T15:58:32.961Z,93.10
2019-03-13T16:01:02.492Z,93.30
2019-03-13T16:03:31.747Z,93.70
2019-03-13T16:06:02.474Z,94.60
2019-03-13T16:08:31.677Z,94.60
2019-03-13T16:11:00.924Z,94.20
2019-03-13T16:13:30.228Z,93.40
2019-03-13T16:15:59.725Z,93.60
2019-03-13T16:18:28.884Z,94.20
2019-03-13T16:20:58.141Z,93.90
2019-03-13T16:23:27.540Z,93.90
2019-03-13T16:25:56.787Z,94.10
2019-03-13T16:28:26.048Z,94.80
2019-03-13T16:30:55.629Z,94.60
2019-03-13T16:33:24.928Z,95.10
2019-03-13T16:35:54.133Z,95.20
2019-03-13T16:38:23.513Z,95.20
2019-03-13T16:40:52.774Z,94.60
2019-03-13T16:43:21.963Z,95.40
2019-03-13T16:45:51.176Z,95.30
2019-03-13T16:48:20.411Z,94.90
2019-03-13T16:50:51.259Z,94.90
2019-03-13T16:53:20.393Z,95.10
2019-03-13T16:55:49.676Z,94.70
2019-03-13T16:58:19.007Z,94.80
2019-03-13T17:00:50.623Z,95.10
2019-03-13T17:03:19.277Z,95.10
2019-03-13T17:05:48.661Z,95.10
2019-03-13T17:08:17.922Z,95.20
2019-03-13T17:10:47.236Z,95.10
2019-03-13T17:13:16.563Z,95.70
2019-03-13T17:15:45.962Z,96.40
2019-03-13T17:18:15.184Z,96.30
2019-03-13T17:20:44.404Z,96.40
2019-03-13T17:23:13.749Z,96.90
2019-03-13T17:25:43.090Z,96.60
2019-03-13T17:28:12.332Z,97.00
2019-03-13T17:30:41.614Z,97.30
2019-03-13T17:33:10.899Z,97.20
2019-03-13T17:35:40.168Z,97.50
2019-03-13T17:38:09.367Z,97.60
2019-03-13T17:40:39.439Z,97.40
2019-03-13T17:43:08.615Z,97.20
2019-03-13T17:45:37.874Z,97.60
2019-03-13T17:48:09.318Z,97.40
2019-03-13T17:50:38.682Z,97.50
2019-03-13T17:53:08.056Z,98.10
2019-03-13T17:55:37.509Z,97.90
2019-03-13T17:58:06.878Z,97.50
2019-03-13T18:00:42.572Z,97.70
2019-03-13T18:03:11.889Z,97.70
2019-03-13T18:05:41.103Z,97.90
2019-03-13T18:08:10.442Z,98.10
2019-03-13T18:10:39.842Z,97.70
2019-03-13T18:13:09.092Z,97.50
2019-03-13T18:15:38.443Z,97.90
2019-03-13T18:18:07.736Z,97.90
2019-03-13T18:20:37.059Z,97.80
2019-03-13T18:23:06.622Z,98.60
2019-03-13T18:25:35.883Z,98.90
2019-03-13T18:28:05.193Z,99.40
2019-03-13T18:30:34.465Z,99.50
2019-03-13T18:33:03.715Z,99.90
2019-03-13T18:35:33.011Z,99.90
2019-03-13T18:38:02.263Z,99.90
2019-03-13T18:40:31.426Z,99.90
2019-03-13T18:43:00.661Z,99.60
2019-03-13T18:45:30.041Z,99.90
2019-03-13T18:47:59.349Z,99.80
2019-03-13T18:50:28.728Z,99.90
2019-03-13T18:52:58.125Z,99.90
2019-03-13T18:55:27.452Z,99.90
2019-03-13T18:57:56.853Z,99.90
2019-03-13T19:00:28.202Z,99.90
2019-03-13T19:02:58.820Z,99.90
2019-03-13T19:05:28.764Z,99.90
2019-03-13T19:07:58.145Z,99.90
2019-03-13T19:10:27.418Z,99.90
2019-03-13T19:12:58.299Z,99.90
2019-03-13T19:15:27.550Z,99.90
2019-03-13T19:18:00.335Z,99.90
2019-03-13T19:20:28.328Z,99.90
2019-03-13T19:22:57.719Z,99.90
2019-03-13T19:25:28.470Z,99.90
2019-03-13T19:27:57.758Z,99.90
2019-03-13T19:30:28.385Z,99.90
2019-03-13T19:33:01.084Z,99.90
2019-03-13T19:35:30.390Z,99.90
2019-03-13T19:38:00.477Z,99.90
2019-03-13T19:40:29.737Z,99.90
2019-03-13T19:42:59.215Z,99.90
2019-03-13T19:45:35.216Z,99.90
2019-03-13T19:48:04.897Z,99.90
2019-03-13T19:50:35.138Z,99.90
2019-03-13T19:53:04.527Z,99.90
2019-03-13T19:55:33.983Z,99.90
2019-03-13T19:58:03.418Z,99.90
2019-03-13T20:00:32.738Z,99.90
2019-03-13T20:03:04.073Z,99.90
2019-03-13T20:05:44.799Z,99.90
2019-03-13T20:08:04.371Z,99.90
2019-03-13T20:10:33.721Z,99.90
2019-03-13T20:13:03.202Z,99.90
2019-03-13T20:15:32.673Z,99.90
2019-03-13T20:18:02.164Z,99.90
2019-03-13T20:20:31.371Z,99.90
2019-03-13T20:23:02.534Z,99.90
2019-03-13T20:25:31.858Z,99.90
2019-03-13T20:28:01.262Z,99.90
2019-03-13T20:30:30.450Z,99.90
2019-03-13T20:32:59.834Z,99.90
2019-03-13T20:35:29.166Z,99.90
2019-03-13T20:37:58.628Z,99.90
2019-03-13T20:40:28.187Z,99.90
2019-03-13T20:42:57.554Z,99.90
2019-03-13T20:45:26.954Z,99.90
2019-03-13T20:47:56.441Z,99.90
2019-03-13T20:50:35.892Z,99.90
2019-03-13T20:52:56.977Z,99.90
2019-03-13T20:55:27.729Z,99.90
2019-03-13T20:57:57.187Z,99.90
2019-03-13T21:00:28.723Z,99.90
2019-03-13T21:02:58.531Z,99.90
2019-03-13T21:05:27.951Z,99.90
2019-03-13T21:07:57.286Z,99.90
2019-03-13T21:10:26.573Z,99.90
2019-03-13T21:12:56.018Z,99.90
2019-03-13T21:15:25.561Z,99.90
2019-03-13T21:17:55.124Z,99.90
2019-03-13T21:20:24.826Z,99.90
2019-03-13T21:22:54.198Z,99.90
2019-03-13T21:25:23.535Z,99.90
2019-03-13T21:27:55.676Z,99.90
2019-03-13T21:30:25.334Z,99.90
2019-03-13T21:32:54.690Z,99.90
2019-03-13T21:35:24.403Z,99.90
2019-03-13T21:37:53.848Z,99.90
2019-03-13T21:40:23.159Z,99.90
2019-03-13T21:42:54.588Z,99.90
2019-03-13T21:45:23.521Z,99.90
2019-03-13T21:47:53.010Z,99.90
2019-03-13T21:50:22.773Z,99.90
2019-03-13T21:52:52.061Z,99.90
2019-03-13T21:55:21.297Z,99.90
2019-03-13T21:57:52.238Z,99.90
2019-03-13T22:00:24.627Z,99.90
2019-03-13T22:02:57.700Z,99.90
2019-03-13T22:05:28.558Z,99.90
2019-03-13T22:08:03.974Z,99.90
2019-03-13T22:10:34.953Z,99.90
2019-03-13T22:13:05.472Z,99.90
2019-03-13T22:15:35.302Z,99.90
2019-03-13T22:18:06.371Z,99.90
2019-03-13T22:20:36.396Z,99.90
2019-03-13T22:23:07.918Z,99.90
2019-03-13T22:25:38.999Z,99.90
2019-03-13T22:28:08.580Z,99.90
2019-03-13T22:30:39.561Z,99.90
2019-03-13T22:33:09.209Z,99.90
2019-03-13T22:35:39.215Z,99.90
2019-03-13T22:38:08.668Z,99.90
2019-03-13T22:40:38.216Z,99.90
2019-03-13T22:43:08.921Z,99.90
2019-03-13T22:45:38.766Z,99.90
2019-03-13T22:48:08.775Z,99.90
2019-03-13T22:50:40.202Z,99.90
2019-03-13T22:53:17.371Z,99.90
2019-03-13T22:55:50.049Z,99.90
2019-03-13T22:58:19.602Z,99.90
2019-03-13T23:01:19.725Z,99.90
2019-03-13T23:03:50.556Z,99.90
2019-03-13T23:06:21.675Z,99.90
2019-03-13T23:09:00.992Z,99.90
2019-03-13T23:11:30.535Z,99.90
2019-03-13T23:14:01.069Z,99.90
2019-03-13T23:16:44.573Z,99.90
2019-03-13T23:19:17.342Z,99.90
2019-03-13T23:21:45.862Z,99.90
2019-03-13T23:24:20.975Z,99.90
2019-03-13T23:26:51.793Z,99.90
2019-03-13T23:29:32.966Z,99.90
2019-03-13T23:32:04.162Z,99.90
2019-03-13T23:34:36.577Z,99.90
2019-03-13T23:37:11.869Z,99.90
2019-03-13T23:39:46.905Z,99.90
2019-03-13T23:42:19.027Z,99.90
2019-03-13T23:44:55.033Z,99.90
2019-03-13T23:47:24.691Z,99.90
2019-03-13T23:49:54.580Z,99.90
2019-03-13T23:52:25.912Z,99.90
2019-03-13T23:54:55.411Z,99.90
2019-03-13T23:57:24.778Z,99.90
2019-03-13T23:59:54.242Z,99.90
